sensor_id;sensor_type;location;lat;lon;timestamp;pressure;altitude;pressure_sealevel;temperature;humidity
44934;BME280;30667;43.614;1.442;2023-02-11T00:01:57;101940.03;;;2.36;100.00
44934;BME280;30667;43.614;1.442;2023-02-11T00:04:25;101945.25;;;2.29;100.00
44934;BME280;30667;43.614;1.442;2023-02-11T00:06:50;101941.91;;;2.27;100.00
44934;BME280;30667;43.614;1.442;2023-02-11T00:09:16;101938.72;;;2.32;100.00
44934;BME280;30667;43.614;1.442;2023-02-11T00:11:41;101940.78;;;2.22;100.00
44934;BME280;30667;43.614;1.442;2023-02-11T00:14:08;101935.94;;;2.25;100.00
44934;BME280;30667;43.614;1.442;2023-02-11T00:16:35;101924.91;;;2.20;100.00
44934;BME280;30667;43.614;1.442;2023-02-11T00:19:01;101919.94;;;2.17;100.00
44934;BME280;30667;43.614;1.442;2023-02-11T00:21:27;101920.13;;;2.15;100.00
44934;BME280;30667;43.614;1.442;2023-02-11T00:23:53;101913.75;;;2.16;100.00
44934;BME280;30667;43.614;1.442;2023-02-11T00:26:23;101914.97;;;2.14;100.00
44934;BME280;30667;43.614;1.442;2023-02-11T00:28:50;101914.16;;;2.05;100.00
44934;BME280;30667;43.614;1.442;2023-02-11T00:31:17;101911.44;;;2.13;100.00
44934;BME280;30667;43.614;1.442;2023-02-11T00:33:43;101907.66;;;2.08;100.00
44934;BME280;30667;43.614;1.442;2023-02-11T00:36:19;101908.81;;;2.05;100.00
44934;BME280;30667;43.614;1.442;2023-02-11T00:38:47;101913.34;;;2.05;100.00
44934;BME280;30667;43.614;1.442;2023-02-11T00:41:13;101904.63;;;2.11;100.00
44934;BME280;30667;43.614;1.442;2023-02-11T00:43:39;101910.53;;;1.98;100.00
44934;BME280;30667;43.614;1.442;2023-02-11T00:46:05;101905.44;;;2.11;100.00
44934;BME280;30667;43.614;1.442;2023-02-11T00:48:31;101904.63;;;2.11;100.00
44934;BME280;30667;43.614;1.442;2023-02-11T00:50:57;101900.63;;;2.07;100.00
44934;BME280;30667;43.614;1.442;2023-02-11T00:53:22;101899.75;;;2.14;100.00
44934;BME280;30667;43.614;1.442;2023-02-11T00:55:47;101897.75;;;2.16;100.00
44934;BME280;30667;43.614;1.442;2023-02-11T00:58:13;101901.44;;;2.15;100.00
44934;BME280;30667;43.614;1.442;2023-02-11T01:00:38;101891.09;;;2.12;100.00
44934;BME280;30667;43.614;1.442;2023-02-11T01:03:04;101895.94;;;2.09;100.00
44934;BME280;30667;43.614;1.442;2023-02-11T01:05:30;101891.63;;;2.08;100.00
44934;BME280;30667;43.614;1.442;2023-02-11T01:07:56;101898.78;;;2.07;100.00
44934;BME280;30667;43.614;1.442;2023-02-11T01:10:22;101897.13;;;2.06;100.00
44934;BME280;30667;43.614;1.442;2023-02-11T01:12:47;101900.34;;;2.02;100.00
44934;BME280;30667;43.614;1.442;2023-02-11T01:15:14;101894.50;;;1.98;100.00
44934;BME280;30667;43.614;1.442;2023-02-11T01:17:39;101893.50;;;1.99;100.00
44934;BME280;30667;43.614;1.442;2023-02-11T01:20:07;101885.81;;;1.96;100.00
44934;BME280;30667;43.614;1.442;2023-02-11T01:22:33;101886.34;;;1.99;100.00
44934;BME280;30667;43.614;1.442;2023-02-11T01:25:02;101889.19;;;1.90;100.00
44934;BME280;30667;43.614;1.442;2023-02-11T01:27:27;101882.84;;;1.91;100.00
44934;BME280;30667;43.614;1.442;2023-02-11T01:29:53;101878.34;;;1.91;100.00
44934;BME280;30667;43.614;1.442;2023-02-11T01:32:18;101884.69;;;1.90;100.00
44934;BME280;30667;43.614;1.442;2023-02-11T01:34:43;101884.19;;;1.87;100.00
44934;BME280;30667;43.614;1.442;2023-02-11T01:37:09;101878.25;;;1.76;100.00
44934;BME280;30667;43.614;1.442;2023-02-11T01:39:34;101878.25;;;1.76;100.00
44934;BME280;30667;43.614;1.442;2023-02-11T01:42:00;101879.97;;;1.69;100.00
44934;BME280;30667;43.614;1.442;2023-02-11T01:44:36;101879.63;;;1.64;100.00
44934;BME280;30667;43.614;1.442;2023-02-11T01:47:04;101877.81;;;1.65;100.00
44934;BME280;30667;43.614;1.442;2023-02-11T01:49:33;101874.28;;;1.64;100.00
44934;BME280;30667;43.614;1.442;2023-02-11T01:52:01;101875.34;;;1.55;100.00
44934;BME280;30667;43.614;1.442;2023-02-11T01:54:32;101862.19;;;1.53;100.00
44934;BME280;30667;43.614;1.442;2023-02-11T01:57:20;101869.13;;;1.62;100.00
44934;BME280;30667;43.614;1.442;2023-02-11T02:02:25;101863.13;;;1.60;100.00
44934;BME280;30667;43.614;1.442;2023-02-11T02:04:59;101856.28;;;1.58;100.00
44934;BME280;30667;43.614;1.442;2023-02-11T02:07:39;101866.66;;;1.53;100.00
44934;BME280;30667;43.614;1.442;2023-02-11T02:10:12;101865.50;;;1.55;100.00
44934;BME280;30667;43.614;1.442;2023-02-11T02:12:38;101860.66;;;1.51;100.00
44934;BME280;30667;43.614;1.442;2023-02-11T02:18:19;101863.19;;;1.44;100.00
44934;BME280;30667;43.614;1.442;2023-02-11T02:24:02;101862.69;;;1.40;100.00
44934;BME280;30667;43.614;1.442;2023-02-11T02:26:59;101857.53;;;1.47;100.00
44934;BME280;30667;43.614;1.442;2023-02-11T02:37:17;101837.19;;;1.46;100.00
44934;BME280;30667;43.614;1.442;2023-02-11T02:39:48;101842.69;;;1.44;100.00
44934;BME280;30667;43.614;1.442;2023-02-11T02:42:15;101838.50;;;1.42;100.00
44934;BME280;30667;43.614;1.442;2023-02-11T02:44:48;101837.19;;;1.46;100.00
44934;BME280;30667;43.614;1.442;2023-02-11T02:47:13;101838.34;;;1.43;100.00
44934;BME280;30667;43.614;1.442;2023-02-11T02:49:39;101833.22;;;1.34;100.00
44934;BME280;30667;43.614;1.442;2023-02-11T02:57:27;101822.19;;;1.37;100.00
44934;BME280;30667;43.614;1.442;2023-02-11T03:05:10;101822.44;;;1.19;100.00
44934;BME280;30667;43.614;1.442;2023-02-11T03:08:02;101825.44;;;1.16;100.00
44934;BME280;30667;43.614;1.442;2023-02-11T03:10:39;101823.94;;;1.13;100.00
44934;BME280;30667;43.614;1.442;2023-02-11T03:13:07;101819.09;;;1.08;100.00
44934;BME280;30667;43.614;1.442;2023-02-11T03:15:44;101817.47;;;1.07;100.00
44934;BME280;30667;43.614;1.442;2023-02-11T03:18:16;101820.16;;;0.99;100.00
44934;BME280;30667;43.614;1.442;2023-02-11T03:20:46;101810.63;;;1.05;100.00
44934;BME280;30667;43.614;1.442;2023-02-11T03:26:29;101808.31;;;1.02;100.00
44934;BME280;30667;43.614;1.442;2023-02-11T03:34:29;101801.84;;;0.96;100.00
44934;BME280;30667;43.614;1.442;2023-02-11T03:39:37;101801.84;;;0.88;100.00
44934;BME280;30667;43.614;1.442;2023-02-11T03:42:05;101801.31;;;1.01;100.00
44934;BME280;30667;43.614;1.442;2023-02-11T03:44:37;101794.81;;;1.03;100.00
44934;BME280;30667;43.614;1.442;2023-02-11T03:47:08;101799.66;;;0.92;100.00
44934;BME280;30667;43.614;1.442;2023-02-11T03:49:37;101803.81;;;0.94;100.00
44934;BME280;30667;43.614;1.442;2023-02-11T03:52:06;101802.34;;;0.92;100.00
44934;BME280;30667;43.614;1.442;2023-02-11T03:54:32;101803.50;;;0.81;100.00
44934;BME280;30667;43.614;1.442;2023-02-11T03:57:00;101799.34;;;0.78;100.00
44934;BME280;30667;43.614;1.442;2023-02-11T03:59:26;101803.69;;;0.71;100.00
44934;BME280;30667;43.614;1.442;2023-02-11T04:01:52;101810.19;;;0.77;100.00
44934;BME280;30667;43.614;1.442;2023-02-11T04:04:17;101800.69;;;0.74;100.00
44934;BME280;30667;43.614;1.442;2023-02-11T04:06:43;101801.03;;;0.79;100.00
44934;BME280;30667;43.614;1.442;2023-02-11T04:09:09;101802.00;;;0.78;100.00
44934;BME280;30667;43.614;1.442;2023-02-11T04:11:35;101807.34;;;0.78;100.00
44934;BME280;30667;43.614;1.442;2023-02-11T04:14:00;101798.84;;;0.75;100.00
44934;BME280;30667;43.614;1.442;2023-02-11T04:16:26;101798.38;;;0.71;100.00
44934;BME280;30667;43.614;1.442;2023-02-11T04:18:51;101795.06;;;0.69;100.00
44934;BME280;30667;43.614;1.442;2023-02-11T04:21:17;101801.34;;;0.76;100.00
44934;BME280;30667;43.614;1.442;2023-02-11T04:23:42;101793.88;;;0.71;100.00
44934;BME280;30667;43.614;1.442;2023-02-11T04:26:08;101796.38;;;0.65;100.00
44934;BME280;30667;43.614;1.442;2023-02-11T04:28:33;101799.19;;;0.63;100.00
44934;BME280;30667;43.614;1.442;2023-02-11T04:30:59;101797.88;;;0.67;100.00
44934;BME280;30667;43.614;1.442;2023-02-11T04:33:24;101799.72;;;0.75;100.00
44934;BME280;30667;43.614;1.442;2023-02-11T04:35:50;101807.88;;;0.74;100.00
44934;BME280;30667;43.614;1.442;2023-02-11T04:38:16;101801.53;;;0.66;100.00
44934;BME280;30667;43.614;1.442;2023-02-11T04:40:41;101808.88;;;0.64;100.00
44934;BME280;30667;43.614;1.442;2023-02-11T04:43:07;101798.88;;;0.66;100.00
44934;BME280;30667;43.614;1.442;2023-02-11T04:45:32;101799.38;;;0.53;100.00
44934;BME280;30667;43.614;1.442;2023-02-11T04:47:58;101807.69;;;0.59;100.00
44934;BME280;30667;43.614;1.442;2023-02-11T04:50:24;101786.72;;;0.56;100.00
44934;BME280;30667;43.614;1.442;2023-02-11T04:52:49;101791.06;;;0.57;100.00
44934;BME280;30667;43.614;1.442;2023-02-11T04:55:15;101797.88;;;0.51;100.00
44934;BME280;30667;43.614;1.442;2023-02-11T04:57:40;101789.53;;;0.54;100.00
44934;BME280;30667;43.614;1.442;2023-02-11T05:00:06;101791.72;;;0.59;100.00
44934;BME280;30667;43.614;1.442;2023-02-11T05:02:32;101783.06;;;0.57;100.00
44934;BME280;30667;43.614;1.442;2023-02-11T05:04:57;101786.22;;;0.52;100.00
44934;BME280;30667;43.614;1.442;2023-02-11T05:07:23;101795.91;;;0.53;100.00
44934;BME280;30667;43.614;1.442;2023-02-11T05:09:48;101791.06;;;0.48;100.00
44934;BME280;30667;43.614;1.442;2023-02-11T05:12:14;101796.56;;;0.47;100.00
44934;BME280;30667;43.614;1.442;2023-02-11T05:14:39;101798.72;;;0.43;100.00
44934;BME280;30667;43.614;1.442;2023-02-11T05:17:05;101797.38;;;0.39;100.00
44934;BME280;30667;43.614;1.442;2023-02-11T05:19:30;101794.22;;;0.35;100.00
44934;BME280;30667;43.614;1.442;2023-02-11T05:21:56;101796.56;;;0.39;100.00
44934;BME280;30667;43.614;1.442;2023-02-11T05:24:21;101797.22;;;0.41;100.00
44934;BME280;30667;43.614;1.442;2023-02-11T05:26:47;101792.38;;;0.36;100.00
44934;BME280;30667;43.614;1.442;2023-02-11T05:29:12;101796.19;;;0.25;100.00
44934;BME280;30667;43.614;1.442;2023-02-11T05:31:37;101794.41;;;0.34;100.00
44934;BME280;30667;43.614;1.442;2023-02-11T05:34:03;101794.41;;;0.34;100.00
44934;BME280;30667;43.614;1.442;2023-02-11T05:36:28;101800.69;;;0.41;100.00
44934;BME280;30667;43.614;1.442;2023-02-11T05:38:54;101791.03;;;0.32;100.00
44934;BME280;30667;43.614;1.442;2023-02-11T05:41:19;101793.72;;;0.32;100.00
44934;BME280;30667;43.614;1.442;2023-02-11T05:43:47;101790.72;;;0.35;100.00
44934;BME280;30667;43.614;1.442;2023-02-11T05:46:15;101794.06;;;0.37;100.00
44934;BME280;30667;43.614;1.442;2023-02-11T05:48:41;101791.72;;;0.42;100.00
44934;BME280;30667;43.614;1.442;2023-02-11T05:51:06;101789.06;;;0.34;100.00
44934;BME280;30667;43.614;1.442;2023-02-11T05:53:31;101789.22;;;0.32;100.00
44934;BME280;30667;43.614;1.442;2023-02-11T05:55:57;101782.72;;;0.35;100.00
44934;BME280;30667;43.614;1.442;2023-02-11T05:58:22;101783.41;;;0.29;100.00
44934;BME280;30667;43.614;1.442;2023-02-11T06:00:48;101779.75;;;0.22;100.00
44934;BME280;30667;43.614;1.442;2023-02-11T06:03:13;101776.59;;;0.26;100.00
44934;BME280;30667;43.614;1.442;2023-02-11T06:05:38;101782.41;;;0.22;100.00
44934;BME280;30667;43.614;1.442;2023-02-11T06:08:04;101791.22;;;0.22;100.00
44934;BME280;30667;43.614;1.442;2023-02-11T06:10:29;101780.56;;;0.22;100.00
44934;BME280;30667;43.614;1.442;2023-02-11T06:12:55;101781.09;;;0.26;100.00
44934;BME280;30667;43.614;1.442;2023-02-11T06:15:20;101778.56;;;0.08;100.00
44934;BME280;30667;43.614;1.442;2023-02-11T06:17:45;101783.56;;;0.19;100.00
44934;BME280;30667;43.614;1.442;2023-02-11T06:20:11;101780.72;;;0.21;100.00
44934;BME280;30667;43.614;1.442;2023-02-11T06:22:37;101781.91;;;0.10;100.00
44934;BME280;30667;43.614;1.442;2023-02-11T06:25:03;101780.38;;;-0.01;100.00
44934;BME280;30667;43.614;1.442;2023-02-11T06:27:29;101790.50;;;-0.13;100.00
44934;BME280;30667;43.614;1.442;2023-02-11T06:29:54;101789.81;;;-0.23;100.00
44934;BME280;30667;43.614;1.442;2023-02-11T06:32:20;101795.28;;;-0.33;100.00
44934;BME280;30667;43.614;1.442;2023-02-11T06:34:45;101794.63;;;-0.35;100.00
44934;BME280;30667;43.614;1.442;2023-02-11T06:37:11;101790.13;;;-0.34;100.00
44934;BME280;30667;43.614;1.442;2023-02-11T06:39:36;101792.97;;;-0.28;100.00
44934;BME280;30667;43.614;1.442;2023-02-11T06:42:02;101794.47;;;-0.33;100.00
44934;BME280;30667;43.614;1.442;2023-02-11T06:44:28;101795.75;;;-0.38;100.00
44934;BME280;30667;43.614;1.442;2023-02-11T06:46:53;101795.75;;;-0.38;100.00
44934;BME280;30667;43.614;1.442;2023-02-11T06:49:18;101793.59;;;-0.42;100.00
44934;BME280;30667;43.614;1.442;2023-02-11T06:51:44;101792.75;;;-0.43;100.00
44934;BME280;30667;43.614;1.442;2023-02-11T06:54:10;101793.56;;;-0.50;100.00
44934;BME280;30667;43.614;1.442;2023-02-11T06:56:39;101799.34;;;-0.55;100.00
44934;BME280;30667;43.614;1.442;2023-02-11T06:59:04;101795.41;;;-0.43;100.00
44934;BME280;30667;43.614;1.442;2023-02-11T07:01:30;101800.19;;;-0.46;100.00
44934;BME280;30667;43.614;1.442;2023-02-11T07:03:55;101795.59;;;-0.36;100.00
44934;BME280;30667;43.614;1.442;2023-02-11T07:06:23;101796.09;;;-0.32;100.00
44934;BME280;30667;43.614;1.442;2023-02-11T07:08:51;101803.56;;;-0.36;100.00
44934;BME280;30667;43.614;1.442;2023-02-11T07:11:19;101809.91;;;-0.29;100.00
44934;BME280;30667;43.614;1.442;2023-02-11T07:13:46;101804.94;;;-0.32;100.00
44934;BME280;30667;43.614;1.442;2023-02-11T07:16:13;101816.25;;;-0.30;100.00
44934;BME280;30667;43.614;1.442;2023-02-11T07:18:39;101808.22;;;-0.38;100.00
44934;BME280;30667;43.614;1.442;2023-02-11T07:21:06;101814.38;;;-0.38;100.00
44934;BME280;30667;43.614;1.442;2023-02-11T07:23:33;101815.53;;;-0.40;100.00
44934;BME280;30667;43.614;1.442;2023-02-11T07:26:06;101811.56;;;-0.28;100.00
44934;BME280;30667;43.614;1.442;2023-02-11T07:28:33;101813.59;;;-0.22;100.00
44934;BME280;30667;43.614;1.442;2023-02-11T07:31:14;101823.72;;;-0.33;100.00
44934;BME280;30667;43.614;1.442;2023-02-11T07:33:42;101822.84;;;-0.34;100.00
44934;BME280;30667;43.614;1.442;2023-02-11T07:36:11;101835.69;;;-0.29;100.00
44934;BME280;30667;43.614;1.442;2023-02-11T07:38:37;101829.69;;;-0.31;100.00
44934;BME280;30667;43.614;1.442;2023-02-11T07:41:06;101837.16;;;-0.35;100.00
44934;BME280;30667;43.614;1.442;2023-02-11T07:43:34;101833.84;;;-0.29;100.00
44934;BME280;30667;43.614;1.442;2023-02-11T07:46:12;101841.97;;;-0.30;100.00
44934;BME280;30667;43.614;1.442;2023-02-11T07:48:38;101843.81;;;-0.31;100.00
44934;BME280;30667;43.614;1.442;2023-02-11T07:51:09;101838.69;;;-0.24;100.00
44934;BME280;30667;43.614;1.442;2023-02-11T07:53:35;101841.91;;;-0.12;100.00
44934;BME280;30667;43.614;1.442;2023-02-11T07:56:02;101846.19;;;-0.20;100.00
44934;BME280;30667;43.614;1.442;2023-02-11T07:58:27;101843.84;;;-0.23;100.00
44934;BME280;30667;43.614;1.442;2023-02-11T08:00:52;101848.69;;;-0.18;100.00
44934;BME280;30667;43.614;1.442;2023-02-11T08:03:18;101853.84;;;-0.16;100.00
44934;BME280;30667;43.614;1.442;2023-02-11T08:05:43;101852.84;;;-0.15;100.00
44934;BME280;30667;43.614;1.442;2023-02-11T08:08:09;101855.84;;;-0.19;100.00
44934;BME280;30667;43.614;1.442;2023-02-11T08:10:34;101861.66;;;-0.15;100.00
44934;BME280;30667;43.614;1.442;2023-02-11T08:12:59;101865.84;;;-0.12;100.00
44934;BME280;30667;43.614;1.442;2023-02-11T08:15:25;101871.34;;;-0.06;100.00
44934;BME280;30667;43.614;1.442;2023-02-11T08:17:50;101866.81;;;-0.13;100.00
44934;BME280;30667;43.614;1.442;2023-02-11T08:20:16;101862.16;;;-0.11;100.00
44934;BME280;30667;43.614;1.442;2023-02-11T08:22:41;101869.50;;;-0.05;100.00
44934;BME280;30667;43.614;1.442;2023-02-11T08:25:06;101864.72;;;-0.02;100.00
44934;BME280;30667;43.614;1.442;2023-02-11T08:27:32;101867.03;;;0.02;100.00
44934;BME280;30667;43.614;1.442;2023-02-11T08:29:58;101866.38;;;-0.01;100.00
44934;BME280;30667;43.614;1.442;2023-02-11T08:32:24;101869.03;;;0.08;100.00
44934;BME280;30667;43.614;1.442;2023-02-11T08:34:50;101871.72;;;0.16;100.00
44934;BME280;30667;43.614;1.442;2023-02-11T08:37:17;101866.94;;;0.20;100.00
44934;BME280;30667;43.614;1.442;2023-02-11T08:39:42;101860.41;;;0.22;100.00
44934;BME280;30667;43.614;1.442;2023-02-11T08:42:08;101868.72;;;0.19;100.00
44934;BME280;30667;43.614;1.442;2023-02-11T08:44:34;101866.63;;;0.39;100.00
44934;BME280;30667;43.614;1.442;2023-02-11T08:46:59;101867.81;;;0.45;100.00
44934;BME280;30667;43.614;1.442;2023-02-11T08:49:24;101863.13;;;0.47;100.00
44934;BME280;30667;43.614;1.442;2023-02-11T08:51:50;101864.66;;;0.58;100.00
44934;BME280;30667;43.614;1.442;2023-02-11T08:54:16;101860.16;;;0.58;100.00
44934;BME280;30667;43.614;1.442;2023-02-11T08:56:42;101866.28;;;0.59;100.00
44934;BME280;30667;43.614;1.442;2023-02-11T08:59:11;101854.81;;;0.75;100.00
44934;BME280;30667;43.614;1.442;2023-02-11T09:01:37;101856.31;;;0.85;100.00
44934;BME280;30667;43.614;1.442;2023-02-11T09:04:03;101849.97;;;1.03;100.00
44934;BME280;30667;43.614;1.442;2023-02-11T09:06:29;101844.59;;;1.19;100.00
44934;BME280;30667;43.614;1.442;2023-02-11T09:08:55;101845.72;;;1.33;100.00
44934;BME280;30667;43.614;1.442;2023-02-11T09:11:26;101839.66;;;1.48;100.00
44934;BME280;30667;43.614;1.442;2023-02-11T09:13:52;101835.63;;;1.60;100.00
44934;BME280;30667;43.614;1.442;2023-02-11T09:16:21;101829.75;;;1.73;100.00
44934;BME280;30667;43.614;1.442;2023-02-11T09:18:47;101827.84;;;1.81;100.00
44934;BME280;30667;43.614;1.442;2023-02-11T09:21:13;101827.97;;;1.88;100.00
44934;BME280;30667;43.614;1.442;2023-02-11T09:23:39;101831.25;;;1.98;100.00
44934;BME280;30667;43.614;1.442;2023-02-11T09:28:46;101828.94;;;2.18;100.00
44934;BME280;30667;43.614;1.442;2023-02-11T09:31:15;101828.84;;;2.35;100.00
44934;BME280;30667;43.614;1.442;2023-02-11T09:33:43;101824.56;;;2.49;100.00
44934;BME280;30667;43.614;1.442;2023-02-11T09:36:13;101825.16;;;2.59;100.00
44934;BME280;30667;43.614;1.442;2023-02-11T09:38:39;101828.47;;;2.61;100.00
44934;BME280;30667;43.614;1.442;2023-02-11T09:41:04;101830.44;;;2.67;100.00
44934;BME280;30667;43.614;1.442;2023-02-11T09:43:41;101838.38;;;2.76;100.00
44934;BME280;30667;43.614;1.442;2023-02-11T09:46:12;101836.16;;;2.79;100.00
44934;BME280;30667;43.614;1.442;2023-02-11T09:48:40;101834.16;;;2.81;100.00
44934;BME280;30667;43.614;1.442;2023-02-11T09:51:18;101844.50;;;2.84;100.00
44934;BME280;30667;43.614;1.442;2023-02-11T09:53:44;101834.72;;;2.91;100.00
44934;BME280;30667;43.614;1.442;2023-02-11T09:56:13;101833.63;;;3.01;100.00
44934;BME280;30667;43.614;1.442;2023-02-11T09:58:41;101820.72;;;3.04;100.00
44934;BME280;30667;43.614;1.442;2023-02-11T10:01:38;101825.78;;;3.14;100.00
44934;BME280;30667;43.614;1.442;2023-02-11T10:07:24;101817.31;;;3.11;100.00
44934;BME280;30667;43.614;1.442;2023-02-11T10:15:41;101820.63;;;3.42;100.00
44934;BME280;30667;43.614;1.442;2023-02-11T10:19:08;101822.56;;;3.49;100.00
44934;BME280;30667;43.614;1.442;2023-02-11T10:24:04;101823.94;;;3.59;100.00
44934;BME280;30667;43.614;1.442;2023-02-11T10:26:35;101822.91;;;3.75;100.00
44934;BME280;30667;43.614;1.442;2023-02-11T10:29:10;101834.13;;;3.86;100.00
44934;BME280;30667;43.614;1.442;2023-02-11T10:31:41;101824.34;;;3.93;100.00
44934;BME280;30667;43.614;1.442;2023-02-11T10:34:10;101823.41;;;4.00;100.00
44934;BME280;30667;43.614;1.442;2023-02-11T10:36:39;101824.94;;;4.10;100.00
44934;BME280;30667;43.614;1.442;2023-02-11T10:39:31;101821.25;;;4.11;100.00
44934;BME280;30667;43.614;1.442;2023-02-11T10:42:01;101822.78;;;4.20;100.00
44934;BME280;30667;43.614;1.442;2023-02-11T10:44:36;101816.91;;;4.31;100.00
44934;BME280;30667;43.614;1.442;2023-02-11T10:47:10;101817.78;;;4.39;100.00
44934;BME280;30667;43.614;1.442;2023-02-11T10:49:40;101814.16;;;4.46;100.00
44934;BME280;30667;43.614;1.442;2023-02-11T10:52:22;101814.22;;;4.53;100.00
44934;BME280;30667;43.614;1.442;2023-02-11T10:57:37;101803.66;;;4.73;100.00
44934;BME280;30667;43.614;1.442;2023-02-11T11:02:43;101807.00;;;4.82;100.00
44934;BME280;30667;43.614;1.442;2023-02-11T11:05:19;101804.47;;;5.02;100.00
44934;BME280;30667;43.614;1.442;2023-02-11T11:07:53;101802.06;;;5.14;100.00
44934;BME280;30667;43.614;1.442;2023-02-11T11:10:34;101793.31;;;5.33;100.00
44934;BME280;30667;43.614;1.442;2023-02-11T11:13:00;101788.56;;;5.35;100.00
44934;BME280;30667;43.614;1.442;2023-02-11T11:15:30;101787.19;;;5.46;100.00
44934;BME280;30667;43.614;1.442;2023-02-11T11:18:15;101782.84;;;5.52;100.00
44934;BME280;30667;43.614;1.442;2023-02-11T11:21:02;101776.88;;;5.56;100.00
44934;BME280;30667;43.614;1.442;2023-02-11T11:23:30;101763.28;;;5.64;100.00
44934;BME280;30667;43.614;1.442;2023-02-11T11:28:36;101766.03;;;5.91;100.00
44934;BME280;30667;43.614;1.442;2023-02-11T11:31:04;101765.03;;;5.92;100.00
44934;BME280;30667;43.614;1.442;2023-02-11T11:33:33;101764.03;;;6.00;100.00
44934;BME280;30667;43.614;1.442;2023-02-11T11:36:04;101751.88;;;6.17;100.00
44934;BME280;30667;43.614;1.442;2023-02-11T11:38:31;101751.88;;;6.17;100.00
44934;BME280;30667;43.614;1.442;2023-02-11T11:41:13;101743.59;;;6.26;100.00
44934;BME280;30667;43.614;1.442;2023-02-11T11:43:38;101743.59;;;6.26;100.00
44934;BME280;30667;43.614;1.442;2023-02-11T11:46:04;101735.09;;;6.49;100.00
44934;BME280;30667;43.614;1.442;2023-02-11T11:48:36;101734.06;;;6.57;100.00
44934;BME280;30667;43.614;1.442;2023-02-11T11:51:10;101734.06;;;6.57;100.00
44934;BME280;30667;43.614;1.442;2023-02-11T11:53:40;101729.94;;;6.61;100.00
44934;BME280;30667;43.614;1.442;2023-02-11T11:56:27;101732.63;;;6.67;100.00
44934;BME280;30667;43.614;1.442;2023-02-11T11:58:54;101725.94;;;6.90;100.00
44934;BME280;30667;43.614;1.442;2023-02-11T12:07:47;101712.66;;;6.95;100.00
44934;BME280;30667;43.614;1.442;2023-02-11T12:32:42;101676.59;;;7.55;100.00
44934;BME280;30667;43.614;1.442;2023-02-11T12:35:41;101679.69;;;7.58;100.00
44934;BME280;30667;43.614;1.442;2023-02-11T12:43:36;101669.81;;;7.77;100.00
44934;BME280;30667;43.614;1.442;2023-02-11T12:46:34;101666.28;;;7.77;100.00
44934;BME280;30667;43.614;1.442;2023-02-11T12:55:21;101647.34;;;7.90;100.00
44934;BME280;30667;43.614;1.442;2023-02-11T12:57:49;101647.94;;;7.92;100.00
44934;BME280;30667;43.614;1.442;2023-02-11T13:00:19;101644.34;;;7.98;100.00
44934;BME280;30667;43.614;1.442;2023-02-11T13:02:58;101641.31;;;8.13;100.00
44934;BME280;30667;43.614;1.442;2023-02-11T13:05:41;101642.09;;;7.95;100.00
44934;BME280;30667;43.614;1.442;2023-02-11T13:10:49;101628.94;;;8.06;100.00
44934;BME280;30667;43.614;1.442;2023-02-11T13:13:22;101630.72;;;8.18;100.00
44934;BME280;30667;43.614;1.442;2023-02-11T13:16:02;101620.81;;;8.12;100.00
44934;BME280;30667;43.614;1.442;2023-02-11T13:24:03;101604.44;;;8.32;100.00
44934;BME280;30667;43.614;1.442;2023-02-11T13:26:41;101609.00;;;8.32;100.00
44934;BME280;30667;43.614;1.442;2023-02-11T13:32:20;101594.81;;;8.43;100.00
44934;BME280;30667;43.614;1.442;2023-02-11T13:37:21;101588.28;;;8.51;100.00
44934;BME280;30667;43.614;1.442;2023-02-11T13:39:58;101587.47;;;8.50;100.00
44934;BME280;30667;43.614;1.442;2023-02-11T13:42:24;101587.56;;;8.37;100.00
44934;BME280;30667;43.614;1.442;2023-02-11T13:44:50;101585.00;;;8.49;100.00
44934;BME280;30667;43.614;1.442;2023-02-11T13:47:28;101595.31;;;8.52;100.00
44934;BME280;30667;43.614;1.442;2023-02-11T13:49:55;101593.97;;;8.61;100.00
44934;BME280;30667;43.614;1.442;2023-02-11T13:54:56;101585.75;;;8.56;100.00
44934;BME280;30667;43.614;1.442;2023-02-11T13:57:28;101587.75;;;8.61;100.00
44934;BME280;30667;43.614;1.442;2023-02-11T14:00:00;101577.56;;;8.63;100.00
44934;BME280;30667;43.614;1.442;2023-02-11T14:05:31;101574.28;;;8.61;100.00
44934;BME280;30667;43.614;1.442;2023-02-11T14:08:16;101571.34;;;8.62;100.00
44934;BME280;30667;43.614;1.442;2023-02-11T14:16:24;101562.00;;;8.65;100.00
44934;BME280;30667;43.614;1.442;2023-02-11T14:21:37;101560.25;;;8.70;100.00
44934;BME280;30667;43.614;1.442;2023-02-11T14:32:00;101560.16;;;8.77;98.98
44934;BME280;30667;43.614;1.442;2023-02-11T14:37:21;101555.16;;;8.81;96.27
44934;BME280;30667;43.614;1.442;2023-02-11T14:42:22;101549.75;;;8.81;96.48
44934;BME280;30667;43.614;1.442;2023-02-11T14:44:53;101551.22;;;8.95;94.62
44934;BME280;30667;43.614;1.442;2023-02-11T14:47:25;101541.69;;;8.93;93.87
44934;BME280;30667;43.614;1.442;2023-02-11T14:49:53;101538.09;;;8.80;95.59
44934;BME280;30667;43.614;1.442;2023-02-11T14:52:28;101533.34;;;8.82;94.83
44934;BME280;30667;43.614;1.442;2023-02-11T14:55:25;101543.88;;;8.84;97.07
44934;BME280;30667;43.614;1.442;2023-02-11T15:01:21;101542.72;;;8.91;92.53
44934;BME280;30667;43.614;1.442;2023-02-11T15:03:50;101533.78;;;8.79;95.02
44934;BME280;30667;43.614;1.442;2023-02-11T15:06:41;101533.84;;;8.72;93.49
44934;BME280;30667;43.614;1.442;2023-02-11T15:09:18;101536.63;;;8.84;92.54
44934;BME280;30667;43.614;1.442;2023-02-11T15:11:47;101536.66;;;8.96;90.79
44934;BME280;30667;43.614;1.442;2023-02-11T15:14:26;101534.63;;;8.91;88.25
44934;BME280;30667;43.614;1.442;2023-02-11T15:16:53;101532.72;;;8.80;89.24
44934;BME280;30667;43.614;1.442;2023-02-11T15:19:33;101536.72;;;8.78;86.21
44934;BME280;30667;43.614;1.442;2023-02-11T15:22:02;101540.69;;;8.75;85.64
44934;BME280;30667;43.614;1.442;2023-02-11T15:24:31;101536.03;;;8.82;86.69